Happy Valley, Tennessee
Current Conditions -  °F | °C
As of 10:53 PM on Saturday 20 Dec 2014 (Local Time) from KTYS Reporting Station
Overcast Overcast  
Wind Chill: 38°   Ceiling: 4100
Heat Index: 41°   Visibility: 9mi
Dew Point: 36°   Wind: 5mph
Humidity: 82%   Direction: 40°NE
Pressure: 30.23"   Gusts: NA
Location:  35.5537°N, 83.9603°W
Report Text: KTYS 210353Z 04004KT 9SM OVC041 05/02 A3023 RMK AO2 SLP241 T00500022
Loading
Personal Weather Stations






























Interactive Weather Map New forecast layout! Learn more

10-Day Weather Forecast

Advertisements
Track Severe Weather on mobile